Time,TemperatureF,DewpointF,PressureIn,WindDirection,WindDirectionDegrees,WindSpeedMPH,WindSpeedGustMPH,Humidity,HourlyPrecipIn,Conditions,Clouds,dailyrainin,SoftwareType,DateUTC
2013-05-16 00:02:00,66.1,50.9,29.88,NNW,328,0.0,0.0,58,0.00,CLR,,0.00,WeatherDisplay:10.37,2013-05-16 07:02:00,
2013-05-16 00:07:00,66.0,51.7,29.88,NNW,330,0.0,0.0,60,0.00,CLR,,0.00,WeatherDisplay:10.37,2013-05-16 07:07:00,
2013-05-16 00:12:00,65.6,50.0,29.89,NNW,330,0.0,0.0,57,0.00,CLR,,0.00,WeatherDisplay:10.37,2013-05-16 07:12:00,
2013-05-16 00:17:00,65.2,49.6,29.89,NNW,330,0.0,0.0,57,0.00,CLR,,0.00,WeatherDisplay:10.37,2013-05-16 07:17:00,
2013-05-16 00:22:00,64.8,49.2,29.89,NNW,330,0.0,0.0,57,0.00,CLR,,0.00,WeatherDisplay:10.37,2013-05-16 07:22:00,
2013-05-16 00:27:00,64.4,49.3,29.89,NNW,330,0.0,0.0,58,0.00,CLR,,0.00,WeatherDisplay:10.37,2013-05-16 07:27:00,
2013-05-16 00:32:00,64.3,49.7,29.89,NNW,330,0.0,0.0,59,0.00,CLR,,0.00,WeatherDisplay:10.37,2013-05-16 07:32:00,
2013-05-16 00:37:00,64.2,49.6,29.89,NNW,330,0.0,0.0,59,0.00,CLR,,0.00,WeatherDisplay:10.37,2013-05-16 07:37:00,
2013-05-16 00:42:00,64.0,48.9,29.89,NNW,330,0.0,0.0,58,0.00,CLR,,0.00,WeatherDisplay:10.37,2013-05-16 07:42:00,
2013-05-16 00:47:00,63.9,48.4,29.89,NNW,330,0.0,0.0,57,0.00,CLR,,0.00,WeatherDisplay:10.37,2013-05-16 07:47:00,
2013-05-16 00:52:00,64.0,48.5,29.89,NNW,330,0.0,0.0,57,0.00,CLR,,0.00,WeatherDisplay:10.37,2013-05-16 07:52:00,
2013-05-16 00:57:00,63.9,48.4,29.89,NNW,330,0.0,0.0,57,0.00,CLR,,0.00,WeatherDisplay:10.37,2013-05-16 07:57:00,
2013-05-16 01:02:00,63.6,48.5,29.89,NNW,330,0.0,0.0,58,0.00,CLR,,0.00,WeatherDisplay:10.37,2013-05-16 08:02:00,
2013-05-16 01:07:00,63.3,48.7,29.89,NNW,328,0.0,0.0,59,0.00,CLR,,0.00,WeatherDisplay:10.37,2013-05-16 08:07:00,
2013-05-16 01:12:00,63.0,48.9,29.89,NNW,328,0.0,0.0,60,0.00,CLR,,0.00,WeatherDisplay:10.37,2013-05-16 08:12:00,
2013-05-16 01:17:00,62.7,48.2,29.89,NNW,330,0.0,0.0,59,0.00,CLR,,0.00,WeatherDisplay:10.37,2013-05-16 08:17:00,
2013-05-16 01:22:00,62.5,48.4,29.89,NNW,328,0.0,0.0,60,0.00,CLR,,0.00,WeatherDisplay:10.37,2013-05-16 08:22:00,
2013-05-16 01:27:00,62.2,48.6,29.89,NNW,328,0.0,0.0,61,0.00,CLR,,0.00,WeatherDisplay:10.37,2013-05-16 08:27:00,
2013-05-16 01:32:00,62.0,48.4,29.89,NNW,328,0.0,0.0,61,0.00,CLR,,0.00,WeatherDisplay:10.37,2013-05-16 08:32:00,
2013-05-16 01:37:00,61.6,48.0,29.89,NNW,330,0.0,0.0,61,0.00,CLR,,0.00,WeatherDisplay:10.37,2013-05-16 08:37:00,
2013-05-16 01:42:00,61.5,48.4,29.89,NNW,330,0.0,0.0,62,0.00,CLR,,0.00,WeatherDisplay:10.37,2013-05-16 08:42:00,
2013-05-16 01:47:00,61.5,48.4,29.89,NNW,328,0.0,0.0,62,0.00,CLR,,0.00,WeatherDisplay:10.37,2013-05-16 08:47:00,
2013-05-16 01:52:00,61.6,48.4,29.89,NNW,328,0.0,0.0,62,0.00,CLR,,0.00,WeatherDisplay:10.37,2013-05-16 08:52:00,
2013-05-16 01:57:00,61.5,48.4,29.89,NNW,328,0.0,0.0,62,0.00,CLR,,0.00,WeatherDisplay:10.37,2013-05-16 08:57:00,
2013-05-16 02:02:00,61.3,48.2,29.89,NNW,328,0.0,0.0,62,0.00,CLR,,0.00,WeatherDisplay:10.37,2013-05-16 09:02:00,
2013-05-16 02:07:00,61.1,48.4,29.89,NNW,328,0.0,0.0,63,0.00,CLR,,0.00,WeatherDisplay:10.37,2013-05-16 09:07:00,
2013-05-16 02:12:00,60.9,48.6,29.89,NNW,328,0.0,0.0,64,0.00,CLR,,0.00,WeatherDisplay:10.37,2013-05-16 09:12:00,
2013-05-16 02:17:00,60.7,48.4,29.89,NNW,328,0.0,0.0,64,0.00,CLR,,0.00,WeatherDisplay:10.37,2013-05-16 09:17:00,
2013-05-16 02:22:00,60.5,48.7,29.89,NNW,328,0.0,0.0,65,0.00,CLR,,0.00,WeatherDisplay:10.37,2013-05-16 09:22:00,
2013-05-16 02:27:00,60.4,49.0,29.89,NNW,328,0.0,0.0,66,0.00,CLR,,0.00,WeatherDisplay:10.37,2013-05-16 09:27:00,
2013-05-16 02:32:00,60.2,49.2,29.89,NNW,328,0.0,0.0,67,0.00,CLR,,0.00,WeatherDisplay:10.37,2013-05-16 09:32:00,
2013-05-16 02:37:00,60.0,49.4,29.89,NNW,328,0.0,0.0,68,0.00,CLR,,0.00,WeatherDisplay:10.37,2013-05-16 09:37:00,
2013-05-16 02:42:00,59.7,48.7,29.89,NNW,328,0.0,0.0,67,0.00,CLR,,0.00,WeatherDisplay:10.37,2013-05-16 09:42:00,
2013-05-16 02:47:00,59.3,48.7,29.89,NNW,328,0.0,0.0,68,0.00,CLR,,0.00,WeatherDisplay:10.37,2013-05-16 09:47:00,
2013-05-16 02:52:00,59.1,48.9,29.89,NNW,328,0.0,0.0,69,0.00,CLR,,0.00,WeatherDisplay:10.37,2013-05-16 09:52:00,
2013-05-16 02:57:00,58.8,48.6,29.89,NNW,328,0.0,0.0,69,0.00,CLR,,0.00,WeatherDisplay:10.37,2013-05-16 09:57:00,
2013-05-16 03:02:00,58.7,48.9,29.89,NNW,328,0.0,0.0,70,0.00,CLR,,0.00,WeatherDisplay:10.37,2013-05-16 10:02:00,
2013-05-16 03:07:00,58.7,48.9,29.89,NNW,328,0.0,0.0,70,0.00,CLR,,0.00,WeatherDisplay:10.37,2013-05-16 10:07:00,
2013-05-16 03:12:00,58.5,48.7,29.89,NNW,328,0.0,0.0,70,0.00,CLR,,0.00,WeatherDisplay:10.37,2013-05-16 10:12:00,
2013-05-16 03:17:00,58.3,48.9,29.89,NNW,328,0.0,0.0,71,0.00,CLR,,0.00,WeatherDisplay:10.37,2013-05-16 10:17:00,
2013-05-16 03:22:00,58.2,49.2,29.89,NNW,328,0.0,0.0,72,0.00,CLR,,0.00,WeatherDisplay:10.37,2013-05-16 10:22:00,
2013-05-16 03:27:00,58.2,49.2,29.90,NNW,328,0.0,0.0,72,0.00,CLR,,0.00,WeatherDisplay:10.37,2013-05-16 10:27:00,
2013-05-16 03:32:00,58.2,49.6,29.90,NNW,328,0.0,0.0,73,0.00,CLR,,0.00,WeatherDisplay:10.37,2013-05-16 10:32:00,
2013-05-16 03:37:00,58.2,49.2,29.90,NNW,327,0.0,0.0,72,0.00,CLR,,0.00,WeatherDisplay:10.37,2013-05-16 10:37:00,
2013-05-16 03:42:00,58.4,49.4,29.90,NNW,328,0.0,0.0,72,0.00,CLR,,0.00,WeatherDisplay:10.37,2013-05-16 10:42:00,
2013-05-16 03:47:00,58.6,48.8,29.90,NNW,328,0.0,0.0,70,0.00,CLR,,0.00,WeatherDisplay:10.37,2013-05-16 10:47:00,
2013-05-16 03:52:00,58.7,48.6,29.89,NNW,328,0.0,0.0,69,0.00,CLR,,0.00,WeatherDisplay:10.37,2013-05-16 10:52:00,
2013-05-16 03:57:00,58.8,48.6,29.89,NNW,328,0.0,0.0,69,0.00,CLR,,0.00,WeatherDisplay:10.37,2013-05-16 10:57:00,
2013-05-16 04:02:00,58.9,48.7,29.90,NNW,328,0.0,0.0,69,0.00,CLR,,0.00,WeatherDisplay:10.37,2013-05-16 11:02:00,
2013-05-16 04:07:00,58.8,48.6,29.90,NNW,328,0.0,0.0,69,0.00,CLR,,0.00,WeatherDisplay:10.37,2013-05-16 11:07:00,
2013-05-16 04:12:00,58.6,48.5,29.90,NNW,328,0.0,0.0,69,0.00,CLR,,0.00,WeatherDisplay:10.37,2013-05-16 11:12:00,
2013-05-16 04:17:00,58.4,48.7,29.90,NNW,327,0.0,0.0,70,0.00,CLR,,0.00,WeatherDisplay:10.37,2013-05-16 11:17:00,
2013-05-16 04:22:00,58.1,48.4,29.90,NNW,328,0.0,0.0,70,0.00,CLR,,0.00,WeatherDisplay:10.37,2013-05-16 11:22:00,
2013-05-16 04:27:00,57.9,48.2,29.90,NNW,328,0.0,0.0,70,0.00,CLR,,0.00,WeatherDisplay:10.37,2013-05-16 11:27:00,
2013-05-16 04:32:00,57.6,48.3,29.90,NNW,328,0.0,0.0,71,0.00,CLR,,0.00,WeatherDisplay:10.37,2013-05-16 11:32:00,
2013-05-16 04:37:00,57.4,48.4,29.90,NNW,328,0.0,0.0,72,0.00,CLR,,0.00,WeatherDisplay:10.37,2013-05-16 11:37:00,
2013-05-16 04:42:00,57.3,48.0,29.90,NNW,327,0.0,0.0,71,0.00,CLR,,0.00,WeatherDisplay:10.37,2013-05-16 11:42:00,
2013-05-16 04:47:00,57.2,48.3,29.90,NNW,328,0.0,0.0,72,0.00,CLR,,0.00,WeatherDisplay:10.37,2013-05-16 11:47:00,
2013-05-16 04:52:00,57.0,47.7,29.91,NNW,328,0.0,0.0,71,0.00,CLR,,0.00,WeatherDisplay:10.37,2013-05-16 11:52:00,
2013-05-16 04:57:00,56.8,47.9,29.90,NNW,328,0.0,0.0,72,0.00,CLR,,0.00,WeatherDisplay:10.37,2013-05-16 11:57:00,
2013-05-16 05:02:00,56.7,48.1,29.91,NNW,328,0.0,0.0,73,0.00,CLR,,0.00,WeatherDisplay:10.37,2013-05-16 12:02:00,
2013-05-16 05:07:00,56.7,47.8,29.91,NNW,328,0.0,0.0,72,0.00,CLR,,0.00,WeatherDisplay:10.37,2013-05-16 12:07:00,
2013-05-16 05:12:00,56.7,47.4,29.91,NNW,328,0.0,0.0,71,0.00,CLR,,0.00,WeatherDisplay:10.37,2013-05-16 12:12:00,
2013-05-16 05:17:00,56.7,47.4,29.91,NNW,328,0.0,0.0,71,0.00,CLR,,0.00,WeatherDisplay:10.37,2013-05-16 12:17:00,
2013-05-16 05:22:00,56.7,47.4,29.91,NNW,328,0.0,0.0,71,0.00,CLR,,0.00,WeatherDisplay:10.37,2013-05-16 12:22:00,
2013-05-16 05:27:00,56.7,47.4,29.91,NNW,328,0.0,0.0,71,0.00,CLR,,0.00,WeatherDisplay:10.37,2013-05-16 12:27:00,
2013-05-16 05:32:00,56.6,47.7,29.91,NNW,328,0.0,0.0,72,0.00,CLR,,0.00,WeatherDisplay:10.37,2013-05-16 12:32:00,
2013-05-16 05:37:00,56.5,47.6,29.91,NNW,328,0.0,0.0,72,0.00,CLR,,0.00,WeatherDisplay:10.37,2013-05-16 12:37:00,
2013-05-16 05:42:00,56.3,47.4,29.91,NNW,328,0.0,0.0,72,0.00,CLR,,0.00,WeatherDisplay:10.37,2013-05-16 12:42:00,
2013-05-16 05:47:00,56.2,47.3,29.91,NNW,328,0.0,0.0,72,0.00,CLR,,0.00,WeatherDisplay:10.37,2013-05-16 12:47:00,
2013-05-16 05:52:00,56.2,47.7,29.91,NNW,328,0.0,0.0,73,0.00,CLR,,0.00,WeatherDisplay:10.37,2013-05-16 12:52:00,
2013-05-16 05:57:00,56.2,48.0,29.91,NNW,328,0.0,0.0,74,0.00,CLR,,0.00,WeatherDisplay:10.37,2013-05-16 12:57:00,
2013-05-16 06:02:00,56.1,47.6,29.91,NW,319,1.2,0.0,73,0.00,CLR,,0.00,WeatherDisplay:10.37,2013-05-16 13:02:00,
2013-05-16 06:07:00,56.0,47.1,29.91,NW,317,0.0,0.0,72,0.00,CLR,,0.00,WeatherDisplay:10.37,2013-05-16 13:07:00,
2013-05-16 06:12:00,56.2,47.7,29.92,NW,318,0.0,0.0,73,0.00,CLR,,0.00,WeatherDisplay:10.37,2013-05-16 13:12:00,
2013-05-16 06:17:00,56.3,47.8,29.92,NW,317,0.0,0.0,73,0.00,CLR,,0.00,WeatherDisplay:10.37,2013-05-16 13:17:00,
2013-05-16 06:22:00,56.4,47.9,29.92,NW,317,0.0,0.0,73,0.00,CLR,,0.00,WeatherDisplay:10.37,2013-05-16 13:22:00,
2013-05-16 06:27:00,56.4,47.5,29.92,NW,317,0.0,0.0,72,0.00,CLR,,0.00,WeatherDisplay:10.37,2013-05-16 13:27:00,
2013-05-16 06:32:00,56.5,47.6,29.92,NW,317,0.0,0.0,72,0.00,CLR,,0.00,WeatherDisplay:10.37,2013-05-16 13:32:00,
2013-05-16 06:37:00,56.5,47.2,29.92,NW,318,0.0,0.0,71,0.00,CLR,,0.00,WeatherDisplay:10.37,2013-05-16 13:37:00,
2013-05-16 06:42:00,56.6,47.7,29.92,NW,317,0.0,0.0,72,0.00,CLR,,0.00,WeatherDisplay:10.37,2013-05-16 13:42:00,
2013-05-16 06:47:00,56.5,47.6,29.93,NW,317,0.0,0.0,72,0.00,CLR,,0.00,WeatherDisplay:10.37,2013-05-16 13:47:00,
2013-05-16 06:52:00,56.6,48.0,29.93,NW,317,0.0,0.0,73,0.00,CLR,,0.00,WeatherDisplay:10.37,2013-05-16 13:52:00,
2013-05-16 06:57:00,56.6,47.7,29.93,NW,317,0.0,0.0,72,0.00,CLR,,0.00,WeatherDisplay:10.37,2013-05-16 13:57:00,
2013-05-16 07:02:00,56.8,47.9,29.93,NW,317,0.0,0.0,72,0.00,CLR,,0.00,WeatherDisplay:10.37,2013-05-16 14:02:00,
2013-05-16 07:07:00,57.1,48.2,29.93,NW,317,0.0,0.0,72,0.00,CLR,,0.00,WeatherDisplay:10.37,2013-05-16 14:07:00,
2013-05-16 07:12:00,57.5,48.2,29.93,NW,317,0.0,0.0,71,0.00,CLR,,0.00,WeatherDisplay:10.37,2013-05-16 14:12:00,
2013-05-16 07:17:00,57.8,48.1,29.93,NW,318,0.0,0.0,70,0.00,CLR,,0.00,WeatherDisplay:10.37,2013-05-16 14:17:00,
2013-05-16 07:22:00,58.3,48.6,29.93,NW,318,0.0,0.0,70,0.00,CLR,,0.00,WeatherDisplay:10.37,2013-05-16 14:22:00,
2013-05-16 07:27:00,58.8,48.6,29.93,WSW,240,0.0,0.0,69,0.00,CLR,,0.00,WeatherDisplay:10.37,2013-05-16 14:27:00,
2013-05-16 07:32:00,59.2,48.6,29.93,WSW,241,1.2,0.0,68,0.00,CLR,,0.00,WeatherDisplay:10.37,2013-05-16 14:32:00,
2013-05-16 07:37:00,59.6,48.2,29.93,South,191,0.0,0.0,66,0.00,CLR,,0.00,WeatherDisplay:10.37,2013-05-16 14:37:00,
2013-05-16 07:42:00,59.9,48.5,29.93,SSW,192,0.0,0.0,66,0.00,CLR,,0.00,WeatherDisplay:10.37,2013-05-16 14:42:00,
2013-05-16 07:47:00,60.0,48.2,29.93,South,191,0.0,0.0,65,0.00,CLR,,0.00,WeatherDisplay:10.37,2013-05-16 14:47:00,
2013-05-16 07:52:00,60.3,48.5,29.94,SSW,192,0.0,0.0,65,0.00,CLR,,0.00,WeatherDisplay:10.37,2013-05-16 14:52:00,
2013-05-16 07:57:00,60.5,48.7,29.94,South,191,0.0,0.0,65,0.00,CLR,,0.00,WeatherDisplay:10.37,2013-05-16 14:57:00,
2013-05-16 08:02:00,60.9,49.1,29.94,South,189,0.0,0.0,65,0.00,CLR,,0.00,WeatherDisplay:10.37,2013-05-16 15:02:00,
2013-05-16 08:07:00,61.4,49.1,29.94,South,189,2.3,2.3,64,0.00,CLR,,0.00,WeatherDisplay:10.37,2013-05-16 15:07:00,
2013-05-16 08:12:00,61.8,49.1,29.94,SW,226,0.0,0.0,63,0.00,CLR,,0.00,WeatherDisplay:10.37,2013-05-16 15:12:00,
2013-05-16 08:17:00,62.0,49.3,29.94,WSW,256,1.2,1.2,63,0.00,CLR,,0.00,WeatherDisplay:10.37,2013-05-16 15:17:00,
2013-05-16 08:22:00,62.2,49.0,29.94,SW,231,0.0,0.0,62,0.00,CLR,,0.00,WeatherDisplay:10.37,2013-05-16 15:22:00,
2013-05-16 08:27:00,62.5,49.3,29.95,SW,227,0.0,0.0,62,0.00,CLR,,0.00,WeatherDisplay:10.37,2013-05-16 15:27:00,
2013-05-16 08:32:00,62.8,49.1,29.95,SW,233,1.2,1.2,61,0.00,CLR,,0.00,WeatherDisplay:10.37,2013-05-16 15:32:00,
2013-05-16 08:37:00,63.1,49.9,29.95,SW,216,0.0,0.0,62,0.00,CLR,,0.00,WeatherDisplay:10.37,2013-05-16 15:37:00,
2013-05-16 08:42:00,63.4,49.7,29.95,SW,222,0.0,0.0,61,0.00,CLR,,0.00,WeatherDisplay:10.37,2013-05-16 15:42:00,
2013-05-16 08:47:00,63.9,50.2,29.95,SW,222,0.0,0.1,61,0.00,CLR,,0.00,WeatherDisplay:10.37,2013-05-16 15:47:00,
2013-05-16 08:52:00,64.3,50.1,29.95,ESE,107,1.2,0.0,60,0.00,CLR,,0.00,WeatherDisplay:10.37,2013-05-16 15:52:00,
2013-05-16 08:57:00,64.5,50.3,29.95,SSW,212,1.2,0.0,60,0.00,CLR,,0.00,WeatherDisplay:10.37,2013-05-16 15:57:00,
2013-05-16 09:02:00,64.7,50.0,29.95,SSW,213,1.2,0.0,59,0.00,CLR,,0.00,WeatherDisplay:10.37,2013-05-16 16:02:00,
2013-05-16 09:07:00,64.9,50.2,29.95,SW,224,1.2,0.0,59,0.00,CLR,,0.00,WeatherDisplay:10.37,2013-05-16 16:07:00,
2013-05-16 09:12:00,65.1,50.9,29.95,SSW,212,2.3,2.3,60,0.00,CLR,,0.00,WeatherDisplay:10.37,2013-05-16 16:12:00,
2013-05-16 09:17:00,65.5,50.8,29.95,WSW,243,1.2,0.0,59,0.00,CLR,,0.00,WeatherDisplay:10.37,2013-05-16 16:17:00,
2013-05-16 09:22:00,65.8,51.1,29.95,NW,324,0.0,0.0,59,0.00,CLR,,0.00,WeatherDisplay:10.37,2013-05-16 16:22:00,
2013-05-16 09:27:00,66.3,51.5,29.95,South,186,1.2,1.2,59,0.00,CLR,,0.00,WeatherDisplay:10.37,2013-05-16 16:27:00,
2013-05-16 09:32:00,66.7,51.0,29.95,ESE,123,1.2,0.0,57,0.00,CLR,,0.00,WeatherDisplay:10.37,2013-05-16 16:32:00,
2013-05-16 09:37:00,66.9,51.6,29.95,SW,222,0.0,0.0,58,0.00,CLR,,0.00,WeatherDisplay:10.37,2013-05-16 16:37:00,
2013-05-16 09:42:00,67.2,51.0,29.95,South,188,0.0,0.0,56,0.00,CLR,,0.00,WeatherDisplay:10.37,2013-05-16 16:42:00,
2013-05-16 09:47:00,67.4,51.2,29.95,SW,225,0.0,0.0,56,0.00,CLR,,0.00,WeatherDisplay:10.37,2013-05-16 16:47:00,
2013-05-16 09:52:00,67.6,50.9,29.95,WSW,240,1.2,0.0,55,0.00,CLR,,0.00,WeatherDisplay:10.37,2013-05-16 16:52:00,
2013-05-16 09:57:00,67.6,50.9,29.95,WSW,252,1.2,1.2,55,0.00,CLR,,0.00,WeatherDisplay:10.37,2013-05-16 16:57:00,
2013-05-16 10:02:00,67.7,50.5,29.95,WSW,242,0.0,0.0,54,0.00,CLR,,0.00,WeatherDisplay:10.37,2013-05-16 17:02:00,
2013-05-16 10:07:00,68.0,51.2,29.95,SSW,203,0.0,0.0,55,0.00,CLR,,0.00,WeatherDisplay:10.37,2013-05-16 17:07:00,
2013-05-16 10:12:00,68.3,51.0,29.95,West,273,1.0,1.0,54,0.00,CLR,,0.00,WeatherDisplay:10.37,2013-05-16 17:12:00,
2013-05-16 10:17:00,68.8,52.0,29.96,WSW,252,3.5,3.5,55,0.00,CLR,,0.00,WeatherDisplay:10.37,2013-05-16 17:17:00,
2013-05-16 10:22:00,68.9,51.6,29.96,WSW,249,1.2,1.2,54,0.00,CLR,,0.00,WeatherDisplay:10.37,2013-05-16 17:22:00,
2013-05-16 10:27:00,68.9,50.5,29.96,North,4,3.5,3.5,52,0.00,CLR,,0.00,WeatherDisplay:10.37,2013-05-16 17:27:00,
2013-05-16 10:32:00,68.8,51.0,29.96,North,353,3.5,3.5,53,0.00,CLR,,0.00,WeatherDisplay:10.37,2013-05-16 17:32:00,
2013-05-16 10:37:00,68.8,50.5,29.96,West,277,1.2,1.2,52,0.00,CLR,,0.00,WeatherDisplay:10.37,2013-05-16 17:37:00,
2013-05-16 10:42:00,69.2,50.8,29.95,North,351,3.5,3.5,52,0.00,CLR,,0.00,WeatherDisplay:10.37,2013-05-16 17:42:00,
2013-05-16 10:47:00,69.5,50.6,29.95,North,1,4.0,4.0,51,0.00,CLR,,0.00,WeatherDisplay:10.37,2013-05-16 17:47:00,
2013-05-16 10:52:00,69.8,51.4,29.95,NNW,347,2.0,2.0,52,0.00,CLR,,0.00,WeatherDisplay:10.37,2013-05-16 17:52:00,
2013-05-16 10:57:00,69.8,50.9,29.95,WSW,249,2.3,2.3,51,0.00,CLR,,0.00,WeatherDisplay:10.37,2013-05-16 17:57:00,
2013-05-16 11:02:00,69.8,50.3,29.95,NNW,342,3.5,3.5,50,0.00,CLR,,0.00,WeatherDisplay:10.37,2013-05-16 18:02:00,
2013-05-16 11:07:00,70.0,50.5,29.95,North,356,2.3,2.3,50,0.00,CLR,,0.00,WeatherDisplay:10.37,2013-05-16 18:07:00,
2013-05-16 11:12:00,70.7,51.1,29.95,WNW,294,3.5,3.5,50,0.00,CLR,,0.00,WeatherDisplay:10.37,2013-05-16 18:12:00,
2013-05-16 11:17:00,71.0,50.9,29.95,North,7,3.0,3.0,49,0.00,CLR,,0.00,WeatherDisplay:10.37,2013-05-16 18:17:00,
2013-05-16 11:22:00,71.3,51.1,29.95,East,86,2.3,2.3,49,0.00,CLR,,0.00,WeatherDisplay:10.37,2013-05-16 18:22:00,
2013-05-16 11:27:00,71.5,50.2,29.95,West,263,1.2,0.0,47,0.00,CLR,,0.00,WeatherDisplay:10.37,2013-05-16 18:27:00,
2013-05-16 11:32:00,71.5,49.0,29.95,NNW,333,5.8,5.8,45,0.00,CLR,,0.00,WeatherDisplay:10.37,2013-05-16 18:32:00,
2013-05-16 11:37:00,71.4,48.9,29.95,North,5,4.6,4.6,45,0.00,CLR,,0.00,WeatherDisplay:10.37,2013-05-16 18:37:00,
2013-05-16 11:42:00,71.5,50.2,29.94,NNW,328,4.6,4.6,47,0.00,CLR,,0.00,WeatherDisplay:10.37,2013-05-16 18:42:00,
2013-05-16 11:47:00,71.6,49.7,29.94,NNE,20,6.9,6.9,46,0.00,CLR,,0.00,WeatherDisplay:10.37,2013-05-16 18:47:00,
2013-05-16 11:52:00,71.5,50.2,29.94,West,281,4.6,4.6,47,0.00,CLR,,0.00,WeatherDisplay:10.37,2013-05-16 18:52:00,
2013-05-16 11:57:00,71.5,50.2,29.94,NW,309,3.5,3.5,47,0.00,CLR,,0.00,WeatherDisplay:10.37,2013-05-16 18:57:00,
2013-05-16 12:02:00,71.8,51.0,29.94,North,360,3.5,3.5,48,0.00,CLR,,0.00,WeatherDisplay:10.37,2013-05-16 19:02:00,
2013-05-16 12:07:00,72.1,50.8,29.94,NNW,339,3.5,3.5,47,0.00,CLR,,0.00,WeatherDisplay:10.37,2013-05-16 19:07:00,
2013-05-16 12:12:00,72.6,51.2,29.94,SSE,167,5.8,5.8,47,0.00,CLR,,0.00,WeatherDisplay:10.37,2013-05-16 19:12:00,
2013-05-16 12:17:00,72.3,49.8,29.94,NNW,330,3.5,3.5,45,0.00,CLR,,0.00,WeatherDisplay:10.37,2013-05-16 19:17:00,
2013-05-16 12:22:00,72.2,50.3,29.94,North,6,3.5,3.5,46,0.00,FEW,,0.00,WeatherDisplay:10.37,2013-05-16 19:22:00,
2013-05-16 12:27:00,72.3,50.4,29.93,NNW,330,5.8,5.8,46,0.00,FEW,,0.00,WeatherDisplay:10.37,2013-05-16 19:27:00,
2013-05-16 12:32:00,72.2,50.3,29.93,West,263,4.6,4.6,46,0.00,FEW,,0.00,WeatherDisplay:10.37,2013-05-16 19:32:00,
2013-05-16 12:37:00,72.2,50.8,29.93,NNE,19,2.3,2.3,47,0.00,FEW,,0.00,WeatherDisplay:10.37,2013-05-16 19:37:00,
2013-05-16 12:42:00,72.3,50.9,29.93,WSW,251,8.1,8.1,47,0.00,FEW,,0.00,WeatherDisplay:10.37,2013-05-16 19:42:00,
2013-05-16 12:47:00,72.6,51.2,29.93,North,358,3.5,3.5,47,0.00,FEW,,0.00,WeatherDisplay:10.37,2013-05-16 19:47:00,
2013-05-16 12:52:00,72.8,51.4,29.92,West,274,3.5,3.5,47,0.00,FEW,,0.00,WeatherDisplay:10.37,2013-05-16 19:52:00,
2013-05-16 12:57:00,73.2,51.2,29.92,West,269,2.3,2.3,46,0.00,FEW,,0.00,WeatherDisplay:10.37,2013-05-16 19:57:00,
2013-05-16 13:02:00,73.4,51.9,29.92,NW,311,3.5,3.5,47,0.00,FEW,,0.00,WeatherDisplay:10.37,2013-05-16 20:02:00,
2013-05-16 13:07:00,73.8,51.1,29.92,NNE,23,3.5,3.5,45,0.00,FEW,,0.00,WeatherDisplay:10.37,2013-05-16 20:07:00,
2013-05-16 13:12:00,73.8,51.1,29.92,NNW,328,1.2,1.2,45,0.00,FEW,,0.00,WeatherDisplay:10.37,2013-05-16 20:12:00,
2013-05-16 13:17:00,73.9,51.2,29.92,NW,324,2.3,2.3,45,0.00,FEW,,0.00,WeatherDisplay:10.37,2013-05-16 20:17:00,
2013-05-16 13:22:00,73.7,50.4,29.92,WNW,288,5.8,5.8,44,0.00,FEW,,0.00,WeatherDisplay:10.37,2013-05-16 20:22:00,
2013-05-16 13:27:00,73.7,49.8,29.92,NW,324,3.5,3.5,43,0.00,FEW,,0.00,WeatherDisplay:10.37,2013-05-16 20:27:00,
2013-05-16 13:32:00,73.6,50.3,29.91,North,1,3.5,3.5,44,0.00,FEW,,0.00,WeatherDisplay:10.37,2013-05-16 20:32:00,
2013-05-16 13:37:00,73.6,50.3,29.91,NNE,12,2.3,2.3,44,0.00,CLR,,0.00,WeatherDisplay:10.37,2013-05-16 20:37:00,
2013-05-16 13:42:00,73.5,50.2,29.91,North,351,3.5,3.5,44,0.00,CLR,,0.00,WeatherDisplay:10.37,2013-05-16 20:42:00,
2013-05-16 13:47:00,73.3,50.1,29.91,West,269,3.5,3.5,44,0.00,CLR,,0.00,WeatherDisplay:10.37,2013-05-16 20:47:00,
2013-05-16 13:52:00,73.6,50.3,29.92,NW,313,3.5,3.5,44,0.00,CLR,,0.00,WeatherDisplay:10.37,2013-05-16 20:52:00,
2013-05-16 13:57:00,74.0,50.1,29.92,WNW,288,5.8,5.8,43,0.00,CLR,,0.00,WeatherDisplay:10.37,2013-05-16 20:57:00,
2013-05-16 14:02:00,73.7,50.4,29.91,East,98,3.5,3.5,44,0.00,CLR,,0.00,WeatherDisplay:10.37,2013-05-16 21:02:00,
2013-05-16 14:07:00,73.9,51.2,29.91,WSW,256,5.0,5.0,45,0.00,CLR,,0.00,WeatherDisplay:10.37,2013-05-16 21:07:00,
2013-05-16 14:12:00,74.1,50.8,29.91,NW,324,3.5,3.5,44,0.00,CLR,,0.00,WeatherDisplay:10.37,2013-05-16 21:12:00,
2013-05-16 14:17:00,74.4,50.4,29.91,North,8,4.0,4.0,43,0.00,CLR,,0.00,WeatherDisplay:10.37,2013-05-16 21:17:00,
2013-05-16 14:22:00,74.3,51.0,29.91,South,191,2.3,2.3,44,0.00,CLR,,0.00,WeatherDisplay:10.37,2013-05-16 21:22:00,
2013-05-16 14:27:00,74.4,51.1,29.91,West,275,3.5,3.5,44,0.00,CLR,,0.00,WeatherDisplay:10.37,2013-05-16 21:27:00,
2013-05-16 14:32:00,74.4,50.4,29.91,WNW,283,5.8,5.8,43,0.00,CLR,,0.00,WeatherDisplay:10.37,2013-05-16 21:32:00,
2013-05-16 14:37:00,74.2,50.3,29.91,North,9,3.5,3.5,43,0.00,CLR,,0.00,WeatherDisplay:10.37,2013-05-16 21:37:00,
2013-05-16 14:42:00,74.1,50.8,29.90,WNW,284,2.3,2.3,44,0.00,CLR,,0.00,WeatherDisplay:10.37,2013-05-16 21:42:00,
2013-05-16 14:47:00,74.6,51.2,29.90,West,274,2.3,2.3,44,0.00,CLR,,0.00,WeatherDisplay:10.37,2013-05-16 21:47:00,
2013-05-16 14:52:00,74.8,50.8,29.91,NNE,12,3.0,3.0,43,0.00,CLR,,0.00,WeatherDisplay:10.37,2013-05-16 21:52:00,
2013-05-16 14:57:00,74.8,51.4,29.91,NNW,333,2.3,2.3,44,0.00,CLR,,0.00,WeatherDisplay:10.37,2013-05-16 21:57:00,
2013-05-16 15:02:00,75.1,51.1,29.91,North,359,4.0,4.0,43,0.00,CLR,,0.00,WeatherDisplay:10.37,2013-05-16 22:02:00,
2013-05-16 15:07:00,75.3,51.9,29.91,NW,311,4.0,4.0,44,0.00,CLR,,0.00,WeatherDisplay:10.37,2013-05-16 22:07:00,
2013-05-16 15:12:00,75.2,51.8,29.90,NNE,24,4.0,4.0,44,0.00,CLR,,0.00,WeatherDisplay:10.37,2013-05-16 22:12:00,
2013-05-16 15:17:00,75.2,53.0,29.90,SSE,158,2.3,2.3,46,0.00,CLR,,0.00,WeatherDisplay:10.37,2013-05-16 22:17:00,
2013-05-16 15:22:00,75.5,52.1,29.90,NW,311,3.5,3.5,44,0.00,CLR,,0.00,WeatherDisplay:10.37,2013-05-16 22:22:00,
2013-05-16 15:27:00,75.6,51.5,29.89,NNW,328,4.0,4.0,43,0.00,CLR,,0.00,WeatherDisplay:10.37,2013-05-16 22:27:00,
2013-05-16 15:32:00,75.3,51.3,29.89,North,9,3.5,3.5,43,0.00,CLR,,0.00,WeatherDisplay:10.37,2013-05-16 22:32:00,
2013-05-16 15:37:00,75.2,51.8,29.89,NNE,27,3.5,3.5,44,0.00,CLR,,0.00,WeatherDisplay:10.37,2013-05-16 22:37:00,
2013-05-16 15:42:00,75.1,51.1,29.89,NW,308,3.5,3.5,43,0.00,CLR,,0.00,WeatherDisplay:10.37,2013-05-16 22:42:00,
2013-05-16 15:47:00,75.3,51.9,29.89,SW,219,3.5,3.5,44,0.00,CLR,,0.00,WeatherDisplay:10.37,2013-05-16 22:47:00,
2013-05-16 15:52:00,75.3,52.5,29.89,SW,225,2.3,2.3,45,0.00,CLR,,0.00,WeatherDisplay:10.37,2013-05-16 22:52:00,
2013-05-16 15:57:00,75.1,51.7,29.89,North,5,5.8,5.8,44,0.00,CLR,,0.00,WeatherDisplay:10.37,2013-05-16 22:57:00,
2013-05-16 16:02:00,74.7,51.9,29.88,NW,316,4.0,4.0,45,0.00,CLR,,0.00,WeatherDisplay:10.37,2013-05-16 23:02:00,
2013-05-16 16:07:00,74.4,51.7,29.88,West,276,2.3,2.3,45,0.00,CLR,,0.00,WeatherDisplay:10.37,2013-05-16 23:07:00,
2013-05-16 16:12:00,74.3,51.6,29.88,North,1,3.0,3.0,45,0.00,CLR,,0.00,WeatherDisplay:10.37,2013-05-16 23:12:00,
2013-05-16 16:17:00,74.1,51.4,29.88,NW,325,3.5,3.5,45,0.00,CLR,,0.00,WeatherDisplay:10.37,2013-05-16 23:17:00,
2013-05-16 16:22:00,74.0,51.3,29.88,West,277,5.8,5.8,45,0.00,CLR,,0.00,WeatherDisplay:10.37,2013-05-16 23:22:00,
2013-05-16 16:27:00,73.9,51.2,29.88,WSW,251,4.6,4.6,45,0.00,CLR,,0.00,WeatherDisplay:10.37,2013-05-16 23:27:00,
2013-05-16 16:32:00,73.6,51.5,29.88,NNE,12,3.5,3.5,46,0.00,CLR,,0.00,WeatherDisplay:10.37,2013-05-16 23:32:00,
2013-05-16 16:37:00,73.2,51.2,29.88,NNW,342,3.5,3.5,46,0.00,CLR,,0.00,WeatherDisplay:10.37,2013-05-16 23:37:00,
2013-05-16 16:42:00,73.2,50.6,29.88,North,350,3.0,3.0,45,0.00,CLR,,0.00,WeatherDisplay:10.37,2013-05-16 23:42:00,
2013-05-16 16:47:00,73.0,50.4,29.87,North,9,5.8,5.8,45,0.00,CLR,,0.00,WeatherDisplay:10.37,2013-05-16 23:47:00,
2013-05-16 16:52:00,73.0,50.4,29.87,NNW,333,3.5,3.5,45,0.00,CLR,,0.00,WeatherDisplay:10.37,2013-05-16 23:52:00,
2013-05-16 16:57:00,72.9,50.3,29.87,NNW,328,4.6,4.6,45,0.00,CLR,,0.00,WeatherDisplay:10.37,2013-05-16 23:57:00,
2013-05-16 17:02:00,73.0,50.4,29.87,NE,39,3.5,3.5,45,0.00,CLR,,0.00,WeatherDisplay:10.37,2013-05-17 00:02:00,
2013-05-16 17:07:00,73.1,50.5,29.87,North,4,2.3,2.3,45,0.00,CLR,,0.00,WeatherDisplay:10.37,2013-05-17 00:07:00,
2013-05-16 17:12:00,73.1,50.5,29.87,NNW,328,3.5,3.5,45,0.00,CLR,,0.00,WeatherDisplay:10.37,2013-05-17 00:12:00,
2013-05-16 17:17:00,73.3,50.7,29.87,NNW,336,3.5,3.5,45,0.00,CLR,,0.00,WeatherDisplay:10.37,2013-05-17 00:17:00,
2013-05-16 17:22:00,73.4,50.8,29.87,NNW,342,3.5,3.5,45,0.00,CLR,,0.00,WeatherDisplay:10.37,2013-05-17 00:22:00,
2013-05-16 17:27:00,73.5,50.2,29.87,West,266,4.6,4.6,44,0.00,CLR,,0.00,WeatherDisplay:10.37,2013-05-17 00:27:00,
2013-05-16 17:32:00,73.5,50.2,29.87,NNW,348,5.8,5.8,44,0.00,CLR,,0.00,WeatherDisplay:10.37,2013-05-17 00:32:00,
2013-05-16 17:37:00,73.5,50.2,29.87,North,5,3.5,3.5,44,0.00,CLR,,0.00,WeatherDisplay:10.37,2013-05-17 00:37:00,
2013-05-16 17:42:00,74.1,50.8,29.86,NNE,15,7.0,7.0,44,0.00,CLR,,0.00,WeatherDisplay:10.37,2013-05-17 00:42:00,
2013-05-16 17:47:00,74.1,50.8,29.86,WSW,252,2.3,2.3,44,0.00,CLR,,0.00,WeatherDisplay:10.37,2013-05-17 00:47:00,
2013-05-16 17:52:00,74.2,50.9,29.86,West,270,5.0,5.0,44,0.00,CLR,,0.00,WeatherDisplay:10.37,2013-05-17 00:52:00,
2013-05-16 17:57:00,74.4,51.1,29.86,North,1,2.3,2.3,44,0.00,CLR,,0.00,WeatherDisplay:10.37,2013-05-17 00:57:00,
2013-05-16 18:02:00,74.7,50.7,29.86,NNW,328,3.5,3.5,43,0.00,CLR,,0.00,WeatherDisplay:10.37,2013-05-17 01:02:00,
2013-05-16 18:07:00,74.8,51.4,29.86,North,8,3.5,3.5,44,0.00,CLR,,0.00,WeatherDisplay:10.37,2013-05-17 01:07:00,
2013-05-16 18:12:00,74.6,51.2,29.86,NNE,28,3.0,3.0,44,0.00,CLR,,0.00,WeatherDisplay:10.37,2013-05-17 01:12:00,
2013-05-16 18:17:00,74.1,50.8,29.86,NW,307,2.3,2.3,44,0.00,CLR,,0.00,WeatherDisplay:10.37,2013-05-17 01:17:00,
2013-05-16 18:22:00,74.0,51.3,29.86,NNW,345,3.5,3.5,45,0.00,CLR,,0.00,WeatherDisplay:10.37,2013-05-17 01:22:00,
2013-05-16 18:27:00,74.5,51.2,29.86,North,11,3.5,3.5,44,0.00,CLR,,0.00,WeatherDisplay:10.37,2013-05-17 01:27:00,
2013-05-16 18:32:00,74.9,50.9,29.85,NNW,347,3.0,3.0,43,0.00,CLR,,0.00,WeatherDisplay:10.37,2013-05-17 01:32:00,
2013-05-16 18:37:00,75.0,51.6,29.85,NNE,27,2.3,2.3,44,0.00,CLR,,0.00,WeatherDisplay:10.37,2013-05-17 01:37:00,
2013-05-16 18:42:00,74.8,50.8,29.85,NNW,345,3.5,3.5,43,0.00,CLR,,0.00,WeatherDisplay:10.37,2013-05-17 01:42:00,
2013-05-16 18:47:00,74.4,51.1,29.85,NNW,345,2.3,2.3,44,0.00,CLR,,0.00,WeatherDisplay:10.37,2013-05-17 01:47:00,
2013-05-16 18:52:00,74.6,51.9,29.85,SSW,204,1.2,1.2,45,0.00,CLR,,0.00,WeatherDisplay:10.37,2013-05-17 01:52:00,
2013-05-16 18:57:00,74.4,51.7,29.85,NNE,23,1.2,1.2,45,0.00,CLR,,0.00,WeatherDisplay:10.37,2013-05-17 01:57:00,
2013-05-16 19:02:00,74.0,51.3,29.85,NE,52,3.5,3.5,45,0.00,CLR,,0.00,WeatherDisplay:10.37,2013-05-17 02:02:00,
2013-05-16 19:07:00,73.5,51.4,29.85,West,260,3.5,3.5,46,0.00,CLR,,0.00,WeatherDisplay:10.37,2013-05-17 02:07:00,
2013-05-16 19:12:00,73.1,51.1,29.86,SE,126,1.2,1.2,46,0.00,CLR,,0.00,WeatherDisplay:10.37,2013-05-17 02:12:00,
2013-05-16 19:17:00,72.7,51.3,29.86,North,352,3.5,3.5,47,0.00,CLR,,0.00,WeatherDisplay:10.37,2013-05-17 02:17:00,
2013-05-16 19:22:00,72.4,51.6,29.86,North,350,3.5,3.5,48,0.00,CLR,,0.00,WeatherDisplay:10.37,2013-05-17 02:22:00,
2013-05-16 19:27:00,72.1,51.9,29.86,NW,316,0.0,0.0,49,0.00,CLR,,0.00,WeatherDisplay:10.37,2013-05-17 02:27:00,
2013-05-16 19:32:00,71.8,51.6,29.86,NW,315,2.3,0.0,49,0.00,CLR,,0.00,WeatherDisplay:10.37,2013-05-17 02:32:00,
2013-05-16 19:37:00,71.6,52.0,29.86,NNW,330,1.2,1.2,50,0.00,CLR,,0.00,WeatherDisplay:10.37,2013-05-17 02:37:00,
2013-05-16 19:42:00,71.4,52.3,29.87,North,8,1.0,0.0,51,0.00,CLR,,0.00,WeatherDisplay:10.37,2013-05-17 02:42:00,
2013-05-16 19:47:00,71.2,52.7,29.86,North,353,0.0,0.0,52,0.00,OVC,,0.00,WeatherDisplay:10.37,2013-05-17 02:47:00,
2013-05-16 19:52:00,71.1,52.6,29.87,NW,307,0.0,0.0,52,0.00,OVC,,0.00,WeatherDisplay:10.37,2013-05-17 02:52:00,
2013-05-16 19:57:00,70.9,52.9,29.87,WNW,291,1.2,0.0,53,0.00,OVC,,0.00,WeatherDisplay:10.37,2013-05-17 02:57:00,
2013-05-16 20:02:00,70.8,52.8,29.87,WNW,290,1.2,0.0,53,0.00,OVC,,0.00,WeatherDisplay:10.37,2013-05-17 03:02:00,
2013-05-16 20:07:00,70.7,52.7,29.87,NNW,339,0.0,0.0,53,0.00,OVC,,0.00,WeatherDisplay:10.37,2013-05-17 03:07:00,
2013-05-16 20:12:00,70.6,53.1,29.87,NNW,339,0.0,0.0,54,0.00,OVC,,0.00,WeatherDisplay:10.37,2013-05-17 03:12:00,
2013-05-16 20:17:00,70.6,52.6,29.87,NNW,335,0.0,0.0,53,0.00,OVC,,0.00,WeatherDisplay:10.37,2013-05-17 03:17:00,
2013-05-16 20:22:00,70.6,52.6,29.87,West,281,1.2,1.2,53,0.00,OVC,,0.00,WeatherDisplay:10.37,2013-05-17 03:22:00,
2013-05-16 20:27:00,70.5,53.1,29.87,West,281,0.0,0.0,54,0.00,OVC,,0.00,WeatherDisplay:10.37,2013-05-17 03:27:00,
2013-05-16 20:32:00,70.4,53.0,29.87,West,281,0.0,0.0,54,0.00,OVC,,0.00,WeatherDisplay:10.37,2013-05-17 03:32:00,
2013-05-16 20:37:00,70.3,52.9,29.87,West,281,0.0,0.0,54,0.00,OVC,,0.00,WeatherDisplay:10.37,2013-05-17 03:37:00,
2013-05-16 20:42:00,70.2,52.8,29.87,WNW,283,0.0,0.0,54,0.00,OVC,,0.00,WeatherDisplay:10.37,2013-05-17 03:42:00,
2013-05-16 20:47:00,70.1,53.2,29.87,NNW,330,0.0,0.0,55,0.00,OVC,,0.00,WeatherDisplay:10.37,2013-05-17 03:47:00,
2013-05-16 20:52:00,70.0,53.1,29.88,NNW,330,0.0,0.0,55,0.00,OVC,,0.00,WeatherDisplay:10.37,2013-05-17 03:52:00,
2013-05-16 20:57:00,69.9,53.5,29.88,NNW,330,0.0,0.0,56,0.00,OVC,,0.00,WeatherDisplay:10.37,2013-05-17 03:57:00,
2013-05-16 21:01:00,69.8,53.4,29.88,NNW,330,0.0,0.0,56,0.00,OVC,,0.00,WeatherDisplay:10.37,2013-05-17 04:01:00,
2013-05-16 21:06:00,69.7,53.3,29.88,NNW,330,0.0,0.0,56,0.00,OVC,,0.00,WeatherDisplay:10.37,2013-05-17 04:06:00,
2013-05-16 21:11:00,69.6,53.2,29.88,NNW,336,1.2,0.0,56,0.00,OVC,,0.00,WeatherDisplay:10.37,2013-05-17 04:11:00,
2013-05-16 21:16:00,69.6,53.2,29.88,NNW,335,1.2,0.0,56,0.00,OVC,,0.00,WeatherDisplay:10.37,2013-05-17 04:16:00,
2013-05-16 21:21:00,69.5,53.1,29.88,NNW,330,1.0,1.0,56,0.00,OVC,,0.00,WeatherDisplay:10.37,2013-05-17 04:21:00,
2013-05-16 21:26:00,69.4,53.5,29.88,NNW,330,1.2,0.0,57,0.00,OVC,,0.00,WeatherDisplay:10.37,2013-05-17 04:26:00,
2013-05-16 21:31:00,69.3,53.4,29.88,NNW,333,2.3,2.3,57,0.00,OVC,,0.00,WeatherDisplay:10.37,2013-05-17 04:31:00,
2013-05-16 21:36:00,69.2,52.8,29.88,NNW,345,1.2,1.2,56,0.00,OVC,,0.00,WeatherDisplay:10.37,2013-05-17 04:36:00,
2013-05-16 21:41:00,69.2,52.8,29.88,NNW,345,1.2,0.0,56,0.00,OVC,,0.00,WeatherDisplay:10.37,2013-05-17 04:41:00,
2013-05-16 21:46:00,69.2,52.8,29.88,NNW,345,0.0,0.0,56,0.00,OVC,,0.00,WeatherDisplay:10.37,2013-05-17 04:46:00,
2013-05-16 21:51:00,69.2,52.8,29.88,NW,311,1.2,0.0,56,0.00,OVC,,0.00,WeatherDisplay:10.37,2013-05-17 04:51:00,
2013-05-16 21:56:00,69.2,52.8,29.88,NW,311,0.0,0.0,56,0.00,OVC,,0.00,WeatherDisplay:10.37,2013-05-17 04:56:00,
2013-05-16 22:01:00,69.1,53.2,29.88,NW,311,0.0,0.0,57,0.00,OVC,,0.00,WeatherDisplay:10.37,2013-05-17 05:01:00,
2013-05-16 22:06:00,69.0,52.6,29.88,NW,311,1.0,0.0,56,0.00,OVC,,0.00,WeatherDisplay:10.37,2013-05-17 05:06:00,
2013-05-16 22:11:00,69.0,53.1,29.89,NW,316,0.0,0.0,57,0.00,OVC,,0.00,WeatherDisplay:10.37,2013-05-17 05:11:00,
2013-05-16 22:16:00,68.9,53.0,29.89,NW,318,0.0,0.0,57,0.00,OVC,,0.00,WeatherDisplay:10.37,2013-05-17 05:16:00,
2013-05-16 22:21:00,68.8,52.9,29.88,NW,324,0.0,0.3,57,0.00,OVC,,0.00,WeatherDisplay:10.37,2013-05-17 05:21:00,
2013-05-16 22:26:00,68.8,52.9,29.89,NNW,342,1.2,1.2,57,0.00,OVC,,0.00,WeatherDisplay:10.37,2013-05-17 05:26:00,
2013-05-16 22:31:00,68.7,52.8,29.89,NNW,340,1.0,0.0,57,0.00,OVC,,0.00,WeatherDisplay:10.37,2013-05-17 05:31:00,
2013-05-16 22:36:00,68.6,53.2,29.89,NW,305,0.0,0.0,58,0.00,OVC,,0.00,WeatherDisplay:10.37,2013-05-17 05:36:00,
2013-05-16 22:41:00,68.6,53.2,29.89,NW,305,0.0,0.0,58,0.00,OVC,,0.00,WeatherDisplay:10.37,2013-05-17 05:41:00,
2013-05-16 22:46:00,68.5,53.1,29.89,NW,312,0.0,0.0,58,0.00,OVC,,0.00,WeatherDisplay:10.37,2013-05-17 05:46:00,
2013-05-16 22:51:00,68.4,53.5,29.89,West,271,0.0,0.0,59,0.00,OVC,,0.00,WeatherDisplay:10.37,2013-05-17 05:51:00,
2013-05-16 22:56:00,68.3,53.4,29.89,West,273,1.2,0.0,59,0.00,OVC,,0.00,WeatherDisplay:10.37,2013-05-17 05:56:00,
2013-05-16 23:01:00,68.1,53.2,29.89,NW,316,1.2,1.2,59,0.00,OVC,,0.00,WeatherDisplay:10.37,2013-05-17 06:01:00,
2013-05-16 23:06:00,68.0,53.1,29.89,NW,316,0.0,0.0,59,0.00,OVC,,0.00,WeatherDisplay:10.37,2013-05-17 06:06:00,
2013-05-16 23:11:00,67.9,53.5,29.88,NW,318,0.0,0.0,60,0.00,OVC,,0.00,WeatherDisplay:10.37,2013-05-17 06:11:00,
2013-05-16 23:16:00,67.8,53.4,29.88,NW,319,0.0,0.0,60,0.00,OVC,,0.00,WeatherDisplay:10.37,2013-05-17 06:16:00,
2013-05-16 23:21:00,67.7,53.3,29.88,NW,319,0.0,0.0,60,0.00,OVC,,0.00,WeatherDisplay:10.37,2013-05-17 06:21:00,
2013-05-16 23:26:00,67.6,53.2,29.88,NW,319,0.0,0.0,60,0.00,OVC,,0.00,WeatherDisplay:10.37,2013-05-17 06:26:00,
2013-05-16 23:31:00,67.6,53.2,29.88,NW,319,0.0,0.0,60,0.00,OVC,,0.00,WeatherDisplay:10.37,2013-05-17 06:31:00,
2013-05-16 23:36:00,67.5,53.6,29.88,NW,322,0.0,0.0,61,0.00,OVC,,0.00,WeatherDisplay:10.37,2013-05-17 06:36:00,
2013-05-16 23:41:00,67.4,53.5,29.88,WNW,294,0.0,0.0,61,0.00,OVC,,0.00,WeatherDisplay:10.37,2013-05-17 06:41:00,
2013-05-16 23:46:00,67.4,53.5,29.88,NW,307,0.0,0.0,61,0.00,OVC,,0.00,WeatherDisplay:10.37,2013-05-17 06:46:00,
2013-05-16 23:51:00,67.3,53.4,29.88,NW,308,0.0,0.0,61,0.00,OVC,,0.00,WeatherDisplay:10.37,2013-05-17 06:51:00,
2013-05-16 23:56:00,67.4,54.4,29.88,NW,307,0.0,0.0,63,0.00,OVC,,0.00,WeatherDisplay:10.37,2013-05-17 06:56:00,